createdAt,value
2018-12-27T00:00:47.093Z,1022.29
2018-12-27T00:01:47.212Z,1022.24
2018-12-27T00:02:54.628Z,1022.28
2018-12-27T00:03:47.003Z,1022.27
2018-12-27T00:04:47.000Z,1022.27
2018-12-27T00:05:47.251Z,1022.28
2018-12-27T00:06:46.918Z,1022.29
2018-12-27T00:07:46.930Z,1022.25
2018-12-27T00:08:46.890Z,1022.25
2018-12-27T00:09:47.016Z,1022.21
2018-12-27T00:10:46.759Z,1022.22
2018-12-27T00:11:46.762Z,1022.21
2018-12-27T00:12:46.764Z,1022.24
2018-12-27T00:13:46.719Z,1022.26
2018-12-27T00:14:46.734Z,1022.23
2018-12-27T00:15:46.673Z,1022.28
2018-12-27T00:16:46.637Z,1022.27
2018-12-27T00:17:46.590Z,1022.27
2018-12-27T00:18:46.575Z,1022.26
2018-12-27T00:19:46.786Z,1022.27
2018-12-27T00:20:46.530Z,1022.29
2018-12-27T00:21:46.519Z,1022.28
2018-12-27T00:22:46.496Z,1022.31
2018-12-27T00:23:46.457Z,1022.30
2018-12-27T00:24:46.428Z,1022.27
2018-12-27T00:25:46.440Z,1022.23
2018-12-27T00:26:46.356Z,1022.20
2018-12-27T00:27:46.369Z,1022.19
2018-12-27T00:28:46.295Z,1022.18
2018-12-27T00:29:46.307Z,1022.16
2018-12-27T00:30:46.265Z,1022.15
2018-12-27T00:31:46.241Z,1022.13
2018-12-27T00:32:46.185Z,1022.18
2018-12-27T00:33:46.184Z,1022.14
2018-12-27T00:34:46.182Z,1022.19
2018-12-27T00:35:46.154Z,1022.22
2018-12-27T00:36:46.098Z,1022.22
2018-12-27T00:37:46.070Z,1022.21
2018-12-27T00:38:46.081Z,1022.23
2018-12-27T00:39:46.036Z,1022.19
2018-12-27T00:40:45.994Z,1022.16
2018-12-27T00:41:45.970Z,1022.15
2018-12-27T00:42:45.945Z,1022.11
2018-12-27T00:43:45.948Z,1022.11
2018-12-27T00:44:45.915Z,1022.11
2018-12-27T00:45:45.889Z,1022.14
2018-12-27T00:46:45.847Z,1022.14
2018-12-27T00:47:45.875Z,1022.13
2018-12-27T00:48:45.857Z,1022.11
2018-12-27T00:49:45.963Z,1022.09
2018-12-27T00:50:45.695Z,1022.07
2018-12-27T00:51:45.791Z,1022.02
2018-12-27T00:52:45.672Z,1022.01
2018-12-27T00:53:45.665Z,1022.02
2018-12-27T00:54:45.611Z,1022.03
2018-12-27T00:55:45.587Z,1022.01
2018-12-27T00:56:45.589Z,1022.02
2018-12-27T00:57:45.840Z,1021.99
2018-12-27T00:58:45.542Z,1021.98
2018-12-27T00:59:45.504Z,1021.96
2018-12-27T01:00:45.464Z,1021.92
2018-12-27T01:01:45.461Z,1021.95
2018-12-27T01:02:45.486Z,1021.97
2018-12-27T01:03:45.386Z,1021.97
2018-12-27T01:04:45.372Z,1021.91
2018-12-27T01:05:45.340Z,1021.92
2018-12-27T01:06:45.349Z,1021.92
2018-12-27T01:07:45.334Z,1021.90
2018-12-27T01:08:45.257Z,1021.94
2018-12-27T01:09:45.246Z,1021.93
2018-12-27T01:10:45.328Z,1021.93
2018-12-27T01:11:45.211Z,1021.90
2018-12-27T01:12:45.171Z,1021.90
2018-12-27T01:13:45.121Z,1021.92
2018-12-27T01:14:45.094Z,1021.90
2018-12-27T01:15:45.107Z,1021.93
2018-12-27T01:16:45.063Z,1021.93
2018-12-27T01:17:45.024Z,1021.93
2018-12-27T01:18:45.012Z,1021.91
2018-12-27T01:19:44.962Z,1021.91
2018-12-27T01:20:44.957Z,1021.92
2018-12-27T01:21:44.944Z,1021.92
2018-12-27T01:22:44.860Z,1021.92
2018-12-27T01:23:44.913Z,1021.88
2018-12-27T01:24:44.843Z,1021.87
2018-12-27T01:25:44.835Z,1021.91
2018-12-27T01:26:44.801Z,1021.91
2018-12-27T01:27:44.884Z,1021.94
2018-12-27T01:28:44.858Z,1021.90
2018-12-27T01:29:44.678Z,1021.92
2018-12-27T01:30:44.670Z,1021.93
2018-12-27T01:31:50.560Z,1021.94
2018-12-27T01:32:44.655Z,1021.95
2018-12-27T01:33:44.570Z,1021.92
2018-12-27T01:34:44.607Z,1021.89
2018-12-27T01:35:44.598Z,1021.90
2018-12-27T01:36:44.587Z,1021.92
2018-12-27T01:37:44.526Z,1021.90
2018-12-27T01:38:44.482Z,1021.92
2018-12-27T01:39:44.449Z,1021.86
2018-12-27T01:40:44.422Z,1021.92
2018-12-27T01:41:44.384Z,1021.90
2018-12-27T01:42:44.377Z,1021.88
2018-12-27T01:43:44.303Z,1021.88
2018-12-27T01:44:44.377Z,1021.86
2018-12-27T01:45:44.361Z,1021.88
2018-12-27T01:46:44.259Z,1021.80
2018-12-27T01:47:44.217Z,1021.83
2018-12-27T01:48:44.249Z,1021.82
2018-12-27T01:49:44.195Z,1021.80
2018-12-27T01:50:44.161Z,1021.74
2018-12-27T01:51:44.172Z,1021.74
2018-12-27T01:52:44.132Z,1021.77
2018-12-27T01:53:44.085Z,1021.70
2018-12-27T01:54:44.054Z,1021.73
2018-12-27T01:55:44.019Z,1021.70
2018-12-27T01:56:43.989Z,1021.67
2018-12-27T01:57:43.919Z,1021.63
2018-12-27T01:58:43.954Z,1021.65
2018-12-27T01:59:43.925Z,1021.62
2018-12-27T02:00:43.870Z,1021.61
2018-12-27T02:01:43.891Z,1021.60
2018-12-27T02:02:43.815Z,1021.59
2018-12-27T02:03:43.815Z,1021.62
2018-12-27T02:04:43.804Z,1021.57
2018-12-27T02:05:43.732Z,1021.58
2018-12-27T02:06:43.772Z,1021.62
2018-12-27T02:07:43.692Z,1021.59
2018-12-27T02:08:43.921Z,1021.61
2018-12-27T02:09:43.875Z,1021.61
2018-12-27T02:10:43.643Z,1021.58
2018-12-27T02:11:43.584Z,1021.58
2018-12-27T02:12:43.550Z,1021.59
2018-12-27T02:13:43.509Z,1021.54
2018-12-27T02:14:43.552Z,1021.56
2018-12-27T02:15:43.507Z,1021.58
2018-12-27T02:16:43.485Z,1021.50
2018-12-27T02:17:43.506Z,1021.53
2018-12-27T02:18:43.404Z,1021.50
2018-12-27T02:19:43.354Z,1021.53
2018-12-27T02:20:43.371Z,1021.51
2018-12-27T02:21:43.472Z,1021.51
2018-12-27T02:22:43.274Z,1021.54
2018-12-27T02:23:43.595Z,1021.54
2018-12-27T02:24:43.224Z,1021.50
2018-12-27T02:25:43.238Z,1021.49
2018-12-27T02:26:43.181Z,1021.48
2018-12-27T02:27:43.131Z,1021.43
2018-12-27T02:28:43.142Z,1021.49
2018-12-27T02:29:43.369Z,1021.47
2018-12-27T02:30:43.126Z,1021.48
2018-12-27T02:31:43.054Z,1021.50
2018-12-27T02:32:43.008Z,1021.51
2018-12-27T02:33:43.005Z,1021.48
2018-12-27T02:34:42.959Z,1021.44
2018-12-27T02:35:42.961Z,1021.45
2018-12-27T02:36:42.970Z,1021.45
2018-12-27T02:37:42.892Z,1021.45
2018-12-27T02:38:42.878Z,1021.47
2018-12-27T02:39:42.842Z,1021.43
2018-12-27T02:40:42.806Z,1021.48
2018-12-27T02:41:42.763Z,1021.40
2018-12-27T02:42:42.767Z,1021.41
2018-12-27T02:43:42.722Z,1021.43
2018-12-27T02:44:42.722Z,1021.40
2018-12-27T02:45:42.697Z,1021.41
2018-12-27T02:46:42.711Z,1021.38
2018-12-27T02:47:42.587Z,1021.42
2018-12-27T02:48:42.895Z,1021.37
2018-12-27T02:49:42.890Z,1021.35
2018-12-27T02:50:42.601Z,1021.35
2018-12-27T02:51:42.489Z,1021.33
2018-12-27T02:52:42.479Z,1021.36
2018-12-27T02:53:42.462Z,1021.40
2018-12-27T02:54:42.490Z,1021.35
2018-12-27T02:55:42.400Z,1021.40
2018-12-27T02:56:42.369Z,1021.37
2018-12-27T02:57:42.398Z,1021.39
2018-12-27T02:58:42.306Z,1021.36
2018-12-27T02:59:42.316Z,1021.34
2018-12-27T03:00:42.223Z,1021.33
2018-12-27T03:01:42.248Z,1021.36
2018-12-27T03:02:42.228Z,1021.37
2018-12-27T03:03:44.020Z,1021.34
2018-12-27T03:04:42.172Z,1021.32
2018-12-27T03:05:42.117Z,1021.32
2018-12-27T03:06:42.233Z,1021.29
2018-12-27T03:07:42.087Z,1021.30
2018-12-27T03:08:42.091Z,1021.29
2018-12-27T03:09:42.025Z,1021.24
2018-12-27T03:10:42.196Z,1021.22
2018-12-27T03:11:42.000Z,1021.20
2018-12-27T03:12:41.928Z,1021.20
2018-12-27T03:13:41.975Z,1021.19
2018-12-27T03:14:42.033Z,1021.15
2018-12-27T03:15:41.810Z,1021.13
2018-12-27T03:16:41.836Z,1021.08
2018-12-27T03:17:41.822Z,1021.06
2018-12-27T03:18:41.793Z,1021.06
2018-12-27T03:19:41.919Z,1021.06
2018-12-27T03:20:41.780Z,1021.01
2018-12-27T03:21:41.700Z,1020.99
2018-12-27T03:22:41.646Z,1020.93
2018-12-27T03:23:41.660Z,1020.93
2018-12-27T03:24:41.912Z,1020.92
2018-12-27T03:25:41.548Z,1020.92
2018-12-27T03:26:41.522Z,1020.90
2018-12-27T03:27:41.529Z,1020.91
2018-12-27T03:28:41.530Z,1020.88
2018-12-27T03:29:41.479Z,1020.90
2018-12-27T03:30:41.472Z,1020.86
2018-12-27T03:31:41.421Z,1020.86
2018-12-27T03:32:41.413Z,1020.90
2018-12-27T03:33:41.398Z,1020.81
2018-12-27T03:34:41.631Z,1020.82
2018-12-27T03:35:41.348Z,1020.82
2018-12-27T03:36:41.327Z,1020.82
2018-12-27T03:37:41.273Z,1020.79
2018-12-27T03:38:41.296Z,1020.80
2018-12-27T03:39:41.228Z,1020.79
2018-12-27T03:40:41.186Z,1020.82
2018-12-27T03:41:41.178Z,1020.77
2018-12-27T03:42:41.166Z,1020.77
2018-12-27T03:43:41.119Z,1020.75
2018-12-27T03:44:41.054Z,1020.72
2018-12-27T03:45:41.088Z,1020.71
2018-12-27T03:46:41.053Z,1020.71
2018-12-27T03:47:40.946Z,1020.72
2018-12-27T03:48:40.980Z,1020.70
2018-12-27T03:49:40.921Z,1020.69
2018-12-27T03:50:40.884Z,1020.67
2018-12-27T03:51:40.874Z,1020.64
2018-12-27T03:52:40.853Z,1020.62
2018-12-27T03:53:40.847Z,1020.61
2018-12-27T03:54:40.782Z,1020.65
2018-12-27T03:55:40.789Z,1020.60
2018-12-27T03:56:40.792Z,1020.61
2018-12-27T03:57:40.945Z,1020.60
2018-12-27T03:58:40.797Z,1020.57
2018-12-27T03:59:40.924Z,1020.58
2018-12-27T04:00:40.928Z,1020.55
2018-12-27T04:01:40.572Z,1020.61
2018-12-27T04:02:40.561Z,1020.52
2018-12-27T04:03:40.502Z,1020.53
2018-12-27T04:04:40.501Z,1020.53
2018-12-27T04:05:40.515Z,1020.57
2018-12-27T04:06:40.447Z,1020.53
2018-12-27T04:07:40.444Z,1020.49
2018-12-27T04:08:40.401Z,1020.48
2018-12-27T04:09:40.354Z,1020.50
2018-12-27T04:10:40.315Z,1020.45
2018-12-27T04:11:40.613Z,1020.47
2018-12-27T04:12:40.443Z,1020.42
2018-12-27T04:13:40.237Z,1020.41
2018-12-27T04:14:40.205Z,1020.42
2018-12-27T04:15:40.282Z,1020.42
2018-12-27T04:16:40.153Z,1020.45
2018-12-27T04:17:40.184Z,1020.43
2018-12-27T04:18:40.166Z,1020.42
2018-12-27T04:19:40.074Z,1020.44
2018-12-27T04:20:40.114Z,1020.48
2018-12-27T04:21:40.015Z,1020.49
2018-12-27T04:22:39.987Z,1020.44
2018-12-27T04:23:39.961Z,1020.45
2018-12-27T04:24:39.981Z,1020.43
2018-12-27T04:25:39.950Z,1020.43
2018-12-27T04:26:39.900Z,1020.40
2018-12-27T04:27:39.909Z,1020.45
2018-12-27T04:28:39.828Z,1020.42
2018-12-27T04:29:39.775Z,1020.43
2018-12-27T04:30:39.775Z,1020.38
2018-12-27T04:31:39.773Z,1020.36
2018-12-27T04:32:39.760Z,1020.42
2018-12-27T04:33:39.654Z,1020.39
2018-12-27T04:34:39.680Z,1020.41
2018-12-27T04:35:39.680Z,1020.39
2018-12-27T04:36:39.859Z,1020.40
2018-12-27T04:37:40.010Z,1020.36
2018-12-27T04:38:39.574Z,1020.33
2018-12-27T04:39:39.535Z,1020.35
2018-12-27T04:40:39.523Z,1020.30
2018-12-27T04:41:39.461Z,1020.35
2018-12-27T04:42:39.450Z,1020.28
2018-12-27T04:43:39.456Z,1020.24
2018-12-27T04:44:39.413Z,1020.29
2018-12-27T04:45:39.386Z,1020.27
2018-12-27T04:46:39.386Z,1020.26
2018-12-27T04:47:39.296Z,1020.28
2018-12-27T04:48:39.328Z,1020.27
2018-12-27T04:49:39.241Z,1020.30
2018-12-27T04:50:39.240Z,1020.26
2018-12-27T04:51:39.182Z,1020.24
2018-12-27T04:52:39.175Z,1020.25
2018-12-27T04:53:39.191Z,1020.28
2018-12-27T04:54:39.108Z,1020.24
2018-12-27T04:55:39.101Z,1020.23
2018-12-27T04:56:39.079Z,1020.24
2018-12-27T04:57:39.079Z,1020.24
2018-12-27T04:58:38.964Z,1020.24
2018-12-27T04:59:38.981Z,1020.24
2018-12-27T05:00:39.047Z,1020.23
2018-12-27T05:01:38.997Z,1020.25
2018-12-27T05:02:38.899Z,1020.25
2018-12-27T05:03:38.882Z,1020.23
2018-12-27T05:04:38.877Z,1020.24
2018-12-27T05:05:38.791Z,1020.24
2018-12-27T05:06:38.963Z,1020.24
2018-12-27T05:07:38.976Z,1020.29
2018-12-27T05:08:38.691Z,1020.26
2018-12-27T05:09:38.696Z,1020.29
2018-12-27T05:10:38.724Z,1020.28
2018-12-27T05:11:38.670Z,1020.31
2018-12-27T05:12:38.622Z,1020.28
2018-12-27T05:13:38.598Z,1020.26
2018-12-27T05:14:38.549Z,1020.27
2018-12-27T05:15:38.539Z,1020.33
2018-12-27T05:16:38.537Z,1020.30
2018-12-27T05:17:38.483Z,1020.34
2018-12-27T05:18:38.437Z,1020.35
2018-12-27T05:19:38.433Z,1020.35
2018-12-27T05:20:38.412Z,1020.40
2018-12-27T05:21:38.405Z,1020.35
2018-12-27T05:22:38.302Z,1020.37
2018-12-27T05:23:38.296Z,1020.37
2018-12-27T05:24:38.303Z,1020.39
2018-12-27T05:25:38.266Z,1020.40
2018-12-27T05:26:38.273Z,1020.37
2018-12-27T05:27:38.195Z,1020.44
2018-12-27T05:28:38.209Z,1020.45
2018-12-27T05:29:38.144Z,1020.48
2018-12-27T05:30:38.116Z,1020.47
2018-12-27T05:31:38.081Z,1020.50
2018-12-27T05:32:38.045Z,1020.48
2018-12-27T05:33:38.055Z,1020.50
2018-12-27T05:34:38.003Z,1020.51
2018-12-27T05:35:37.992Z,1020.52
2018-12-27T05:36:37.937Z,1020.56
2018-12-27T05:37:37.913Z,1020.52
2018-12-27T05:38:37.905Z,1020.53
2018-12-27T05:39:37.817Z,1020.52
2018-12-27T05:40:37.872Z,1020.57
2018-12-27T05:41:37.833Z,1020.53
2018-12-27T05:42:37.929Z,1020.52
2018-12-27T05:43:37.810Z,1020.55
2018-12-27T05:44:37.784Z,1020.57
2018-12-27T05:45:37.708Z,1020.58
2018-12-27T05:46:37.689Z,1020.59
2018-12-27T05:47:37.949Z,1020.56
2018-12-27T05:48:37.649Z,1020.61
2018-12-27T05:49:38.859Z,1020.58
2018-12-27T05:50:37.595Z,1020.59
2018-12-27T05:51:37.594Z,1020.62
2018-12-27T05:52:37.513Z,1020.59
2018-12-27T05:53:37.459Z,1020.62
2018-12-27T05:54:37.472Z,1020.63
2018-12-27T05:55:37.479Z,1020.64
2018-12-27T05:56:37.440Z,1020.63
2018-12-27T05:57:37.392Z,1020.62
2018-12-27T05:58:37.390Z,1020.59
2018-12-27T05:59:37.321Z,1020.63
2018-12-27T06:00:37.327Z,1020.65
2018-12-27T06:01:37.277Z,1020.65
2018-12-27T06:02:37.203Z,1020.66
2018-12-27T06:03:37.437Z,1020.70
2018-12-27T06:04:37.222Z,1020.66
2018-12-27T06:05:37.139Z,1020.68
2018-12-27T06:06:37.122Z,1020.65
2018-12-27T06:07:37.357Z,1020.64
2018-12-27T06:08:37.076Z,1020.69
2018-12-27T06:09:37.016Z,1020.67
2018-12-27T06:10:37.029Z,1020.63
2018-12-27T06:11:37.018Z,1020.64
2018-12-27T06:12:36.985Z,1020.64
2018-12-27T06:13:37.063Z,1020.68
2018-12-27T06:14:36.957Z,1020.70
2018-12-27T06:15:36.911Z,1020.68
2018-12-27T06:16:36.898Z,1020.71
2018-12-27T06:17:36.860Z,1020.71
2018-12-27T06:18:36.826Z,1020.70
2018-12-27T06:19:36.755Z,1020.70
2018-12-27T06:20:36.797Z,1020.70
2018-12-27T06:21:36.690Z,1020.68
2018-12-27T06:22:36.676Z,1020.68
2018-12-27T06:23:36.663Z,1020.69
2018-12-27T06:24:36.665Z,1020.70
2018-12-27T06:25:36.636Z,1020.69
2018-12-27T06:26:36.579Z,1020.69
2018-12-27T06:27:36.523Z,1020.67
2018-12-27T06:28:36.761Z,1020.71
2018-12-27T06:29:36.541Z,1020.70
2018-12-27T06:30:36.522Z,1020.72
2018-12-27T06:31:36.441Z,1020.65
2018-12-27T06:32:36.381Z,1020.69
2018-12-27T06:33:36.405Z,1020.70
2018-12-27T06:34:41.287Z,1020.68
2018-12-27T06:35:36.715Z,1020.69
2018-12-27T06:36:36.377Z,1020.67
2018-12-27T06:37:36.237Z,1020.65
2018-12-27T06:38:36.184Z,1020.69
2018-12-27T06:39:36.538Z,1020.64
2018-12-27T06:40:36.199Z,1020.67
2018-12-27T06:41:36.183Z,1020.67
2018-12-27T06:42:36.143Z,1020.65
2018-12-27T06:43:36.095Z,1020.66
2018-12-27T06:44:36.080Z,1020.65
2018-12-27T06:45:36.019Z,1020.66
2018-12-27T06:46:36.046Z,1020.66
2018-12-27T06:47:36.053Z,1020.65
2018-12-27T06:48:36.001Z,1020.63
2018-12-27T06:49:43.003Z,1020.63
2018-12-27T06:50:35.923Z,1020.64
2018-12-27T06:51:35.929Z,1020.62
2018-12-27T06:52:35.837Z,1020.64
2018-12-27T06:53:35.870Z,1020.61
2018-12-27T06:54:35.822Z,1020.60
2018-12-27T06:55:35.773Z,1020.65
2018-12-27T06:56:35.772Z,1020.64
2018-12-27T06:57:35.738Z,1020.66
2018-12-27T06:58:37.899Z,1020.59
2018-12-27T06:59:35.643Z,1020.65
2018-12-27T07:00:35.627Z,1020.65
2018-12-27T07:01:35.558Z,1020.63
2018-12-27T07:02:35.553Z,1020.64
2018-12-27T07:03:35.538Z,1020.63
2018-12-27T07:04:35.494Z,1020.68
2018-12-27T07:05:35.474Z,1020.70
2018-12-27T07:06:35.920Z,1020.71
2018-12-27T07:07:35.451Z,1020.73
2018-12-27T07:08:35.375Z,1020.76
2018-12-27T07:09:35.362Z,1020.72
2018-12-27T07:10:35.393Z,1020.76
2018-12-27T07:11:35.328Z,1020.78
2018-12-27T07:12:35.269Z,1020.76
2018-12-27T07:13:35.257Z,1020.77
2018-12-27T07:14:35.258Z,1020.79
2018-12-27T07:15:35.194Z,1020.79
2018-12-27T07:16:35.193Z,1020.82
2018-12-27T07:17:35.160Z,1020.84
2018-12-27T07:18:35.078Z,1020.87
2018-12-27T07:19:35.052Z,1020.84
2018-12-27T07:20:35.238Z,1020.82
2018-12-27T07:21:35.047Z,1020.85
2018-12-27T07:22:35.045Z,1020.89
2018-12-27T07:23:34.977Z,1020.88
2018-12-27T07:24:34.970Z,1020.90
2018-12-27T07:25:34.953Z,1020.91
2018-12-27T07:26:34.945Z,1020.91
2018-12-27T07:27:34.855Z,1020.91
2018-12-27T07:28:34.890Z,1020.89
2018-12-27T07:29:34.869Z,1020.93
2018-12-27T07:30:34.757Z,1020.90
2018-12-27T07:31:34.741Z,1020.93
2018-12-27T07:32:34.717Z,1020.93
2018-12-27T07:33:34.678Z,1020.92
2018-12-27T07:34:34.707Z,1020.89
2018-12-27T07:35:34.692Z,1020.94
2018-12-27T07:36:34.607Z,1020.88
2018-12-27T07:37:34.584Z,1020.88
2018-12-27T07:38:34.594Z,1020.88
2018-12-27T07:39:34.576Z,1020.87
2018-12-27T07:40:34.535Z,1020.84
2018-12-27T07:41:34.508Z,1020.88
2018-12-27T07:42:34.418Z,1020.85
2018-12-27T07:43:34.477Z,1020.83
2018-12-27T07:44:34.441Z,1020.83
2018-12-27T07:45:34.390Z,1020.85
2018-12-27T07:46:34.393Z,1020.86
2018-12-27T07:47:34.361Z,1020.81
2018-12-27T07:48:34.294Z,1020.84
2018-12-27T07:49:34.228Z,1020.80
2018-12-27T07:50:34.219Z,1020.80
2018-12-27T07:51:34.224Z,1020.82
2018-12-27T07:52:34.360Z,1020.82
2018-12-27T07:53:34.161Z,1020.80
2018-12-27T07:54:34.160Z,1020.82
2018-12-27T07:55:34.305Z,1020.81
2018-12-27T07:56:34.070Z,1020.83
2018-12-27T07:57:34.024Z,1020.82
2018-12-27T07:58:34.021Z,1020.81
2018-12-27T07:59:34.257Z,1020.82
2018-12-27T08:00:33.907Z,1020.83
2018-12-27T08:01:33.909Z,1020.79
2018-12-27T08:02:33.649Z,1020.78
2018-12-27T08:03:33.841Z,1020.79
2018-12-27T08:04:34.431Z,1020.81
2018-12-27T08:05:34.257Z,1020.77
2018-12-27T08:06:37.741Z,1020.79
2018-12-27T08:07:33.725Z,1020.84
2018-12-27T08:08:33.698Z,1020.84
2018-12-27T08:09:33.636Z,1020.75
2018-12-27T08:10:33.587Z,1020.79
2018-12-27T08:11:33.581Z,1020.79
2018-12-27T08:12:33.362Z,1020.79
2018-12-27T08:13:33.421Z,1020.71
2018-12-27T08:14:33.650Z,1020.71
2018-12-27T08:15:33.784Z,1020.68
2018-12-27T08:16:33.522Z,1020.70
2018-12-27T08:17:33.517Z,1020.68
2018-12-27T08:18:33.347Z,1020.69
2018-12-27T08:19:36.285Z,1020.71
2018-12-27T08:20:33.339Z,1020.75
2018-12-27T08:21:33.129Z,1020.74
2018-12-27T08:22:33.102Z,1020.70
2018-12-27T08:23:33.302Z,1020.70
2018-12-27T08:24:33.023Z,1020.70
2018-12-27T08:25:32.997Z,1020.70
2018-12-27T08:26:32.968Z,1020.68
2018-12-27T08:27:32.940Z,1020.66
2018-12-27T08:28:32.914Z,1020.63
2018-12-27T08:29:42.193Z,1020.64
2018-12-27T08:31:26.631Z,1020.63
2018-12-27T08:32:27.144Z,1020.62
2018-12-27T08:34:19.868Z,1020.65
2018-12-27T08:35:19.933Z,1020.62
2018-12-27T08:37:13.816Z,1020.60
2018-12-27T08:38:12.834Z,1020.60
2018-12-27T08:40:07.076Z,1020.61
2018-12-27T08:41:06.332Z,1020.58
2018-12-27T08:42:59.874Z,1020.53
2018-12-27T08:43:59.769Z,1020.54
2018-12-27T08:45:53.754Z,1020.55
2018-12-27T08:46:53.387Z,1020.55
2018-12-27T08:48:47.855Z,1020.51
2018-12-27T08:49:47.736Z,1020.57
2018-12-27T08:51:41.153Z,1020.54
2018-12-27T08:52:41.171Z,1020.50
2018-12-27T08:54:34.603Z,1020.47
2018-12-27T08:55:34.132Z,1020.49
2018-12-27T08:57:27.747Z,1020.46
2018-12-27T08:58:27.746Z,1020.48
2018-12-27T09:00:20.770Z,1020.47
2018-12-27T09:01:20.900Z,1020.44
2018-12-27T09:03:15.421Z,1020.39
2018-12-27T09:04:15.375Z,1020.39
2018-12-27T09:06:09.664Z,1020.41
2018-12-27T09:07:09.624Z,1020.44
2018-12-27T09:09:02.870Z,1020.43
2018-12-27T09:10:02.602Z,1020.41
2018-12-27T09:11:56.477Z,1020.42
2018-12-27T09:12:56.309Z,1020.48
2018-12-27T09:14:51.242Z,1020.41
2018-12-27T09:15:49.206Z,1020.38
2018-12-27T09:17:42.925Z,1020.40
2018-12-27T09:18:42.863Z,1020.43
2018-12-27T09:20:36.219Z,1020.41
2018-12-27T09:21:35.902Z,1020.44
2018-12-27T09:23:29.611Z,1020.47
2018-12-27T09:24:29.531Z,1020.45
2018-12-27T09:26:23.329Z,1020.40
2018-12-27T09:27:22.581Z,1020.46
2018-12-27T09:29:16.259Z,1020.43
2018-12-27T09:30:15.771Z,1020.47
2018-12-27T09:32:14.563Z,1020.49
2018-12-27T09:33:13.387Z,1020.48
2018-12-27T09:34:13.993Z,1020.48
2018-12-27T09:35:12.965Z,1020.48
2018-12-27T09:36:13.145Z,1020.46
2018-12-27T09:37:12.889Z,1020.48
2018-12-27T09:38:12.883Z,1020.51
2018-12-27T09:39:12.897Z,1020.46
2018-12-27T09:40:14.069Z,1020.50
2018-12-27T09:41:12.834Z,1020.45
2018-12-27T09:42:12.751Z,1020.48
2018-12-27T09:43:12.757Z,1020.47
2018-12-27T09:44:12.716Z,1020.47
2018-12-27T09:45:12.677Z,1020.45
2018-12-27T09:46:12.643Z,1020.43
2018-12-27T09:47:12.657Z,1020.43
2018-12-27T09:48:12.589Z,1020.43
2018-12-27T09:49:20.384Z,1020.44
2018-12-27T09:51:07.317Z,1020.45
2018-12-27T09:52:06.745Z,1020.38
2018-12-27T09:54:00.214Z,1020.40
2018-12-27T09:55:00.311Z,1020.39
2018-12-27T09:56:54.634Z,1020.35
2018-12-27T09:57:55.048Z,1020.37
2018-12-27T09:59:50.714Z,1020.33
2018-12-27T10:00:47.941Z,1020.28
2018-12-27T10:02:42.251Z,1020.23
2018-12-27T10:05:35.427Z,1020.26
2018-12-27T10:06:35.644Z,1020.26
2018-12-27T10:08:28.831Z,1020.19
2018-12-27T10:09:28.495Z,1020.18
2018-12-27T10:11:22.236Z,1020.13
2018-12-27T10:12:21.824Z,1020.12
2018-12-27T10:14:20.190Z,1020.14
2018-12-27T10:15:21.315Z,1020.15
2018-12-27T10:17:13.283Z,1020.14
2018-12-27T10:18:12.604Z,1020.17
2018-12-27T10:20:06.155Z,1020.19
2018-12-27T10:21:07.214Z,1020.15
2018-12-27T10:23:00.303Z,1020.15
2018-12-27T10:23:59.765Z,1020.15
2018-12-27T10:25:55.274Z,1020.18
2018-12-27T10:26:53.514Z,1020.12
2018-12-27T10:28:52.709Z,1020.03
2018-12-27T10:29:53.023Z,1020.03
2018-12-27T10:31:46.365Z,1019.97
2018-12-27T10:32:46.030Z,1020.02
2018-12-27T10:34:39.740Z,1020.02
2018-12-27T10:35:41.311Z,1020.05
2018-12-27T10:37:33.910Z,1019.99
2018-12-27T10:38:33.655Z,1020.05
2018-12-27T10:40:28.665Z,1020.01
2018-12-27T10:41:28.162Z,1020.02
2018-12-27T10:43:21.684Z,1019.98
2018-12-27T10:44:21.431Z,1019.98
2018-12-27T10:46:15.354Z,1019.93
2018-12-27T10:47:14.424Z,1019.95
2018-12-27T10:49:08.084Z,1019.89
2018-12-27T10:50:07.818Z,1019.89
2018-12-27T10:52:01.754Z,1019.86
2018-12-27T10:53:01.402Z,1019.84
2018-12-27T10:54:54.658Z,1019.82
2018-12-27T10:55:54.883Z,1019.77
2018-12-27T10:57:48.070Z,1019.76
2018-12-27T10:58:48.058Z,1019.78
2018-12-27T11:00:41.624Z,1019.70
2018-12-27T11:01:41.614Z,1019.72
2018-12-27T11:03:39.746Z,1019.68
2018-12-27T11:04:39.736Z,1019.65
2018-12-27T11:05:39.636Z,1019.66
2018-12-27T11:06:39.617Z,1019.67
2018-12-27T11:07:39.108Z,1019.64
2018-12-27T11:08:39.089Z,1019.64
2018-12-27T11:09:39.116Z,1019.60
2018-12-27T11:10:39.038Z,1019.60
2018-12-27T11:11:39.135Z,1019.55
2018-12-27T11:12:39.309Z,1019.53
2018-12-27T11:13:39.558Z,1019.51
2018-12-27T11:14:39.379Z,1019.51
2018-12-27T11:15:39.733Z,1019.51
2018-12-27T11:16:38.895Z,1019.51
2018-12-27T11:17:38.867Z,1019.50
2018-12-27T11:18:38.829Z,1019.50
2018-12-27T11:19:38.764Z,1019.43
2018-12-27T11:20:38.739Z,1019.43
2018-12-27T11:21:38.710Z,1019.38
2018-12-27T11:22:38.752Z,1019.41
2018-12-27T11:23:38.660Z,1019.42
2018-12-27T11:24:38.650Z,1019.36
2018-12-27T11:25:38.609Z,1019.37
2018-12-27T11:26:38.628Z,1019.38
2018-12-27T11:27:38.553Z,1019.35
2018-12-27T11:28:38.531Z,1019.34
2018-12-27T11:29:38.501Z,1019.27
2018-12-27T11:30:38.479Z,1019.30
2018-12-27T11:31:38.448Z,1019.29
2018-12-27T11:32:38.421Z,1019.26
2018-12-27T11:33:38.400Z,1019.19
2018-12-27T11:34:38.368Z,1019.21
2018-12-27T11:35:38.349Z,1019.26
2018-12-27T11:36:38.317Z,1019.21
2018-12-27T11:37:38.292Z,1019.19
2018-12-27T11:38:38.283Z,1019.19
2018-12-27T11:39:38.244Z,1019.23
2018-12-27T11:40:38.231Z,1019.17
2018-12-27T11:41:38.185Z,1019.12
2018-12-27T11:42:38.202Z,1019.15
2018-12-27T11:43:38.132Z,1019.12
2018-12-27T11:44:38.109Z,1019.11
2018-12-27T11:45:38.084Z,1019.07
2018-12-27T11:46:38.053Z,1019.03
2018-12-27T11:47:38.027Z,1019.07
2018-12-27T11:48:38.003Z,1019.08
2018-12-27T11:49:37.989Z,1019.07
2018-12-27T11:50:37.947Z,1019.12
2018-12-27T11:51:37.920Z,1019.13
2018-12-27T11:52:37.972Z,1019.07
2018-12-27T11:53:37.887Z,1019.08
2018-12-27T11:54:37.845Z,1019.09
2018-12-27T11:55:37.815Z,1019.13
2018-12-27T11:56:38.415Z,1019.10
2018-12-27T11:57:37.766Z,1019.15
2018-12-27T11:58:37.737Z,1019.15
2018-12-27T11:59:37.710Z,1019.14
2018-12-27T12:00:37.721Z,1019.14
2018-12-27T12:01:37.670Z,1019.13
2018-12-27T12:02:37.639Z,1019.16
2018-12-27T12:03:37.606Z,1019.13
2018-12-27T12:04:37.579Z,1019.16
2018-12-27T12:05:37.557Z,1019.14
2018-12-27T12:06:37.549Z,1019.16
2018-12-27T12:07:37.501Z,1019.18
2018-12-27T12:08:37.475Z,1019.19
2018-12-27T12:09:37.450Z,1019.14
2018-12-27T12:10:37.432Z,1019.16
2018-12-27T12:11:37.396Z,1019.18
2018-12-27T12:12:37.374Z,1019.18
2018-12-27T12:13:38.689Z,1019.15
2018-12-27T12:14:37.317Z,1019.19
2018-12-27T12:15:37.292Z,1019.18
2018-12-27T12:16:37.267Z,1019.16
2018-12-27T12:17:37.242Z,1019.12
2018-12-27T12:18:37.214Z,1019.13
2018-12-27T12:19:37.188Z,1019.16
2018-12-27T12:20:37.171Z,1019.15
2018-12-27T12:21:37.152Z,1019.19
2018-12-27T12:22:37.111Z,1019.17
2018-12-27T12:23:37.090Z,1019.16
2018-12-27T12:24:37.059Z,1019.15
2018-12-27T12:25:37.034Z,1019.12
2018-12-27T12:26:37.014Z,1019.13
2018-12-27T12:27:36.982Z,1019.16
2018-12-27T12:28:36.957Z,1019.16
2018-12-27T12:29:36.931Z,1019.16
2018-12-27T12:30:36.905Z,1019.15
2018-12-27T12:31:36.890Z,1019.09
2018-12-27T12:32:36.856Z,1019.08
2018-12-27T12:33:36.828Z,1019.09
2018-12-27T12:34:36.800Z,1019.04
2018-12-27T12:35:36.811Z,1019.08
2018-12-27T12:36:36.752Z,1019.02
2018-12-27T12:37:36.724Z,1019.05
2018-12-27T12:38:36.699Z,1019.01
2018-12-27T12:39:36.681Z,1019.00
2018-12-27T12:40:36.648Z,1019.01
2018-12-27T12:41:36.623Z,1019.01
2018-12-27T12:42:36.601Z,1018.99
2018-12-27T12:43:36.582Z,1018.96
2018-12-27T12:44:36.545Z,1018.99
2018-12-27T12:45:36.520Z,1018.97
2018-12-27T12:46:36.493Z,1019.02
2018-12-27T12:47:36.470Z,1018.99
2018-12-27T12:48:36.453Z,1018.98
2018-12-27T12:49:36.418Z,1018.99